Data for 09/01/2014

Time Sea-Level Adjusted Pressure Absolute Pressure Temperature Relative Humidity Dew Point   
(mb) (inHg) (mb) (inHg) (C) (F) (%) (C) (F)
00:05 1018 30.06 847 25.01 9.6 49.3 81 6.5 43.6
00:10 1018 30.06 847 25.01 9.6 49.2 79 6.1 43
00:15 1018 30.06 847 25.01 9.6 49.2 79 6.2 43.2
00:20 1018 30.06 847 25.01 9.6 49.3 79 6.2 43.1
00:25 1018 30.06 847 25.01 9.6 49.2 80 6.2 43.2
00:30 1018 30.06 847 25.01 9.7 49.4 77 5.8 42.4
00:35 1018 30.06 847 25.01 9.9 49.8 76 5.8 42.5
00:40 1018 30.06 847 25.01 10 50 75 5.7 42.3
00:45 1018 30.06 847 25.01 10 50 76 5.9 42.7
00:50 1018 30.06 847 25.01 10.1 50.1 76 6.1 42.9
00:55 1018 30.06 847 25.01 9.9 49.9 78 6.3 43.3
01:00 1018 30.06 847 25.01 9.8 49.6 78 6.2 43.2
01:05 1018 30.06 847 25.01 9.9 49.7 78 6.2 43.1
01:10 1018 30.06 847 25.01 9.8 49.7 78 6.2 43.2
01:15 1018 30.06 847 25.01 9.8 49.6 78 6.1 42.9
01:20 1018 30.06 847 25.01 9.8 49.6 79 6.3 43.4
01:25 1018 30.06 847 25.01 9.6 49.3 79 6.1 43
01:30 1018 30.06 847 25.01 9.6 49.3 78 5.9 42.6
01:35 1018 30.06 847 25.01 9.8 49.7 77 6 42.8
01:40 1018 30.06 847 25.01 9.9 49.8 78 6.3 43.3
01:45 1018 30.06 847 25.01 9.9 49.8 77 6 42.9
01:50 1018 30.06 847 25.01 10 50 74 5.7 42.2
01:55 1018 30.06 847 25.01 10.1 50.2 74 5.7 42.2
02:00 1018 30.06 847 25.01 10.1 50.1 73 5.5 41.8
02:05 1018 30.06 847 25.01 10.2 50.3 74 5.7 42.3
02:10 1018 30.06 847 25.01 10.2 50.3 73 5.5 41.9
02:15 1018 30.06 847 25.01 10.2 50.4 79 6.7 44.1
02:20 1018 30.06 847 25.01 10 49.9 81 6.8 44.3
02:25 1018 30.06 847 25.01 9.7 49.5 80 6.4 43.5
02:30 1018 30.06 848 25.04 9.7 49.5 81 6.7 44
02:35 1018 30.06 848 25.04 9.7 49.4 81 6.7 44
02:40 1018 30.06 848 25.04 9.8 49.7 77 6 42.8
02:45 1018 30.06 848 25.04 10 50 74 5.5 41.9
02:50 1018 30.06 848 25.04 10.2 50.3 74 5.7 42.2
02:55 1018 30.06 848 25.04 10.2 50.3 73 5.6 42.2
03:00 1018 30.06 848 25.04 10.1 50.2 77 6.2 43.2
03:05 1018 30.06 848 25.04 10 50 76 6 42.7
03:10 1018 30.06 848 25.04 9.9 49.8 76 5.9 42.7
03:15 1018 30.06 848 25.04 9.9 49.7 76 5.9 42.6
03:20 1018 30.06 848 25.04 9.9 49.7 76 5.9 42.5
03:25 1018 30.06 848 25.04 9.8 49.7 77 5.9 42.7
03:30 1018 30.06 848 25.04 9.7 49.5 77 6 42.8
03:35 1019 30.09 848 25.04 9.6 49.3 79 6.1 43
03:40 1018 30.06 848 25.04 9.5 49.1 78 5.9 42.5
03:45 1019 30.09 848 25.04 9.4 49 79 5.9 42.7
03:50 1019 30.09 848 25.04 9.5 49 78 5.8 42.5
03:55 1019 30.09 848 25.04 9.5 49.1 77 5.7 42.3
04:00 1019 30.09 848 25.04 9.5 49 77 5.6 42.1
04:05 1019 30.09 848 25.04 9.6 49.2 75 5.4 41.8
04:10 1019 30.09 848 25.04 9.7 49.5 74 5.3 41.6
04:15 1019 30.09 848 25.04 9.8 49.6 75 5.6 42
04:20 1019 30.09 848 25.04 9.8 49.6 74 5.3 41.5
04:25 1019 30.09 848 25.04 9.7 49.5 75 5.4 41.8
04:30 1019 30.09 848 25.04 9.6 49.4 73 5.1 41.2
04:35 1019 30.09 848 25.04 9.6 49.3 74 5.1 41.2
04:40 1019 30.09 848 25.04 9.6 49.3 74 5.2 41.4
04:45 1019 30.09 848 25.04 9.5 49.1 76 5.4 41.8
04:50 1019 30.09 848 25.04 9.3 48.7 77 5.4 41.7
04:55 1019 30.09 848 25.04 9.2 48.5 77 5.4 41.6
05:00 1019 30.09 848 25.04 9.1 48.4 77 5.4 41.7
05:05 1019 30.09 848 25.04 9 48.3 77 5.3 41.5
05:10 1019 30.09 848 25.04 9.1 48.4 78 5.5 41.8
05:15 1019 30.09 848 25.04 9.1 48.4 80 5.9 42.6
05:20 1019 30.09 848 25.04 9.1 48.3 77 5.3 41.6
05:25 1019 30.09 848 25.04 9.1 48.4 77 5.3 41.6
05:30 1019 30.09 848 25.04 9.2 48.6 76 5.3 41.5
05:35 1019 30.09 848 25.04 9.3 48.7 75 5.2 41.3
05:40 1019 30.09 848 25.04 9.3 48.7 74 4.9 40.9
05:45 1019 30.09 848 25.04 9.3 48.8 74 4.9 40.8
05:50 1019 30.09 848 25.04 9.3 48.8 74 4.9 40.8
05:55 1019 30.09 848 25.04 9.3 48.8 74 4.9 40.8
06:00 1019 30.09 848 25.04 9.3 48.7 72 4.5 40.1
06:05 1019 30.09 848 25.04 9.3 48.8 71 4.4 39.8
06:10 1019 30.09 848 25.04 9.4 48.8 71 4.5 40
06:15 1019 30.09 848 25.04 9.6 49.2 70 4.4 39.9
06:20 1019 30.09 848 25.04 9.9 49.9 72 5.2 41.4
06:25 1019 30.09 848 25.04 10.1 50.1 72 5.3 41.6
06:30 1019 30.09 848 25.04 9.9 49.8 69 4.5 40.2
06:35 1019 30.09 848 25.04 9.9 49.8 69 4.4 39.9
06:40 1019 30.09 848 25.04 9.9 49.8 69 4.5 40.1
06:45 1019 30.09 848 25.04 9.8 49.7 71 4.8 40.6
06:50 1019 30.09 848 25.04 9.7 49.5 72 4.9 40.8
06:55 1019 30.09 848 25.04 9.8 49.7 71 4.9 40.8
07:00 1019 30.09 849 25.07 10.1 50.1 68 4.5 40
07:05 1019 30.09 849 25.07 10.1 50.2 70 5 41
07:10 1019 30.09 849 25.07 10.1 50.2 70 4.9 40.9
07:15 1019 30.09 849 25.07 10.1 50.3 69 4.8 40.6
07:20 1019 30.09 849 25.07 10.3 50.6 67 4.5 40.2
07:25 1019 30.09 849 25.07 10.3 50.5 65 4.1 39.5
07:30 1019 30.09 849 25.07 10.4 50.8 65 4.2 39.6
07:35 1019 30.09 849 25.07 10.8 51.4 64 4.2 39.6
07:40 1019 30.09 849 25.07 11.1 52.1 64 4.7 40.5
07:45 1020 30.12 849 25.07 11.2 52.2 60 3.9 39
07:50 1020 30.12 849 25.07 11.5 52.6 61 4.2 39.6
07:55 1020 30.12 849 25.07 11.7 53.1 60 4.2 39.6
08:00 1020 30.12 849 25.07 11.5 52.7 60 4 39.2
08:05 1020 30.12 849 25.07 11.9 53.4 57 3.8 38.8
08:10 1020 30.12 849 25.07 12.5 54.4 57 4.4 39.8
08:15 1020 30.12 849 25.07 12.2 53.9 52 2.7 36.9
08:20 1020 30.12 849 25.07 12.8 55.1 51 2.9 37.3
08:25 1020 30.12 849 25.07 13 55.4 52 3.4 38
08:30 1020 30.12 849 25.07 13.7 56.6 50 3.4 38.1
08:35 1020 30.12 849 25.07 13.9 57.1 47 2.8 37
08:40 1020 30.12 849 25.07 13.6 56.5 47 2.7 36.8
08:45 1020 30.12 849 25.07 14.2 57.5 47 3.1 37.5
08:50 1020 30.12 849 25.07 14.5 58 46 3 37.4
08:55 1020 30.12 849 25.07 14.8 58.6 46 3.2 37.8
09:00 1020 30.12 849 25.07 15.4 59.8 43 3.1 37.7
09:05 1020 30.12 849 25.07 15.7 60.3 43 3.2 37.8
09:10 1020 30.12 849 25.07 15.1 59.1 45 3.5 38.2
09:15 1020 30.12 849 25.07 15 59 45 3.3 37.9
09:20 1020 30.12 849 25.07 14.1 57.4 48 3.2 37.8
09:25 1020 30.12 849 25.07 13.4 56.1 48 2.6 36.7
09:30 1020 30.12 849 25.07 13.6 56.5 46 2.4 36.3
09:35 1020 30.12 849 25.07 15 59 43 2.7 36.9
09:40 1019 30.09 849 25.07 15.9 60.6 43 3.3 38
09:45 1020 30.12 849 25.07 16.1 60.9 39 2 35.7
09:50 1020 30.12 849 25.07 16.2 61.1 34 0.3 32.5
09:55 1020 30.12 849 25.07 16.3 61.4 34 0.5 32.9
10:00 1020 30.12 849 25.07 15.8 60.5 35 0.5 33
10:05 1020 30.12 849 25.07 15.8 60.4 33 -0.3 31.5
10:10 1019 30.09 849 25.07 15.1 59.1 35 -0.2 31.6
10:15 1019 30.09 849 25.07 15.9 60.6 35 0.7 33.2
10:20 1019 30.09 849 25.07 16.1 61 35 0.9 33.7
10:25 1019 30.09 849 25.07 15.6 60 38 1.5 34.6
10:30 1019 30.09 849 25.07 15.5 59.9 38 1.3 34.4
10:35 1019 30.09 849 25.07 15.3 59.6 35 0.1 32.2
10:40 1019 30.09 849 25.07 15.1 59.1 34 -0.6 30.8
10:45 1019 30.09 849 25.07 15.7 60.2 34 0.1 32.2
10:50 1019 30.09 849 25.07 16 60.8 32 -0.4 31.3
10:55 1019 30.09 849 25.07 16 60.7 32 -0.5 31.1
11:00 1019 30.09 849 25.07 16.7 62.1 30 -0.9 30.4
11:05 1019 30.09 849 25.07 17 62.5 31 -0.2 31.7
11:10 1019 30.09 849 25.07 17.5 63.4 29 -0.4 31.2
11:15 1019 30.09 849 25.07 17.2 62.9 31 0.1 32.2
11:20 1019 30.09 849 25.07 16.8 62.2 32 -0 31.9
11:25 1019 30.09 849 25.07 17.5 63.5 31 0.4 32.8
11:30 1019 30.09 849 25.07 17.5 63.5 31 0.3 32.5
11:35 1019 30.09 849 25.07 17.6 63.6 32 0.8 33.4
11:40 1019 30.09 849 25.07 16.7 62.1 32 0.1 32.1
11:45 1019 30.09 849 25.07 16.5 61.7 31 -0.4 31.2
11:50 1019 30.09 849 25.07 16.9 62.5 31 -0.2 31.7
11:55 1019 30.09 848 25.04 17.7 63.9 32 1 33.9
12:00 1019 30.09 848 25.04 18.1 64.6 30 0.5 32.8
12:05 1019 30.09 848 25.04 18.1 64.6 31 0.7 33.3
12:10 1019 30.09 848 25.04 18 64.5 31 0.8 33.5
12:15 1019 30.09 848 25.04 18.2 64.7 31 0.7 33.3
12:20 1019 30.09 848 25.04 18 64.5 32 1.1 34.1
12:25 1019 30.09 848 25.04 18 64.4 32 1.3 34.4
12:30 1019 30.09 848 25.04 18.3 64.9 31 0.9 33.6
12:35 1019 30.09 848 25.04 18.4 65.2 30 0.8 33.4
12:40 1019 30.09 848 25.04 18.8 65.8 30 1 33.7
12:45 1019 30.09 848 25.04 19 66.1 29 0.5 33
12:50 1019 30.09 848 25.04 17.7 63.8 33 1.2 34.2
12:55 1019 30.09 848 25.04 17.7 63.9 33 1.2 34.1
13:00 1019 30.09 848 25.04 17.6 63.7 32 0.7 33.3
13:05 1019 30.09 848 25.04 18.3 64.9 30 0.7 33.2
13:10 1019 30.09 848 25.04 18.8 65.9 30 1.2 34.2
13:15 1019 30.09 848 25.04 19.3 66.8 30 1.6 34.9
13:20 1019 30.09 848 25.04 19.5 67 31 1.8 35.3
13:25 1019 30.09 848 25.04 19.2 66.6 30 1.3 34.4
13:30 1019 30.09 848 25.04 19 66.2 30 1.2 34.2
13:35 1019 30.09 848 25.04 18.5 65.2 33 1.9 35.4
13:40 1019 30.09 848 25.04 18.5 65.3 31 1.2 34.2
13:45 1019 30.09 848 25.04 19.2 66.5 30 1.1 34
13:50 1019 30.09 848 25.04 19.4 66.8 29 1.2 34.1
13:55 1019 30.09 848 25.04 19.3 66.7 31 1.7 35.1
14:00 1018 30.06 848 25.04 18.9 66.1 29 0.8 33.4
14:05 1018 30.06 848 25.04 19.6 67.3 28 0.6 33.1
14:10 1018 30.06 848 25.04 19.9 67.8 30 1.8 35.2
14:15 1018 30.06 847 25.01 20.1 68.2 29 1.5 34.7
14:20 1018 30.06 847 25.01 19.9 67.9 30 1.9 35.4
14:25 1018 30.06 847 25.01 19.6 67.3 29 1.3 34.4
14:30 1018 30.06 847 25.01 19.8 67.6 30 1.8 35.2
14:35 1018 30.06 847 25.01 19.7 67.4 29 1.4 34.5
14:40 1018 30.06 847 25.01 19.8 67.7 29 1.3 34.4
14:45 1018 30.06 847 25.01 20.1 68.2 28 1.1 34
14:50 1018 30.06 847 25.01 20.4 68.7 32 3.2 37.7
14:55 1018 30.06 847 25.01 19.5 67.2 29 1.1 33.9
15:00 1018 30.06 847 25.01 19.4 66.9 30 1.6 34.9
15:05 1018 30.06 847 25.01 19.8 67.6 28 1.1 34
15:10 1018 30.06 847 25.01 20.1 68.3 28 1.1 34
15:15 1018 30.06 847 25.01 20.4 68.7 29 1.9 35.4
15:20 1018 30.06 847 25.01 20.2 68.4 29 1.7 35.1
15:25 1018 30.06 847 25.01 19.8 67.7 29 1.6 34.8
15:30 1018 30.06 847 25.01 19 66.2 29 0.8 33.4
15:35 1018 30.06 847 25.01 19.9 67.8 28 1 33.8
15:40 1018 30.06 847 25.01 20.2 68.4 27 1.1 33.9
15:45 1018 30.06 847 25.01 20 68 29 1.7 35
15:50 1018 30.06 847 25.01 19.5 67.1 30 1.4 34.6
15:55 1018 30.06 847 25.01 19.9 67.8 28 0.8 33.5
16:00 1018 30.06 847 25.01 19.7 67.4 29 1.5 34.6
16:05 1018 30.06 847 25.01 19.8 67.7 29 1.4 34.5
16:10 1018 30.06 847 25.01 19.5 67 31 1.8 35.3
16:15 1018 30.06 847 25.01 19.8 67.6 29 1.3 34.3
16:20 1018 30.06 847 25.01 20.1 68.2 27 0.9 33.6
16:25 1018 30.06 847 25.01 20.4 68.6 27 1.1 34
16:30 1017 30.03 847 25.01 20.4 68.7 27 0.9 33.5
16:35 1017 30.03 847 25.01 20.5 68.9 26 0.5 32.8
16:40 1018 30.06 847 25.01 20.6 69 27 0.9 33.6
16:45 1017 30.03 847 25.01 20.7 69.2 27 1.1 34
16:50 1017 30.03 847 25.01 20.4 68.8 27 0.9 33.7
16:55 1017 30.03 847 25.01 20.4 68.6 26 0.6 33
17:00 1017 30.03 847 25.01 20.3 68.6 27 0.8 33.4
17:05 1017 30.03 847 25.01 20.3 68.5 28 1.3 34.3
17:10 1017 30.03 847 25.01 19.4 67 29 1 33.8
17:15 1017 30.03 847 25.01 18.9 66.1 30 1.2 34.1
17:20 1017 30.03 847 25.01 18.8 65.8 31 1.4 34.4
17:25 1017 30.03 847 25.01 19 66.1 30 1.1 34
17:30 1017 30.03 846 24.98 19.1 66.4 30 1.1 33.9
17:35 1017 30.03 846 24.98 19 66.3 30 1.4 34.6
17:40 1017 30.03 846 24.98 19.1 66.4 30 1.3 34.3
17:45 1017 30.03 846 24.98 19.1 66.3 30 1.1 34
17:50 1017 30.03 846 24.98 19 66.1 30 1.2 34.1
17:55 1017 30.03 846 24.98 18.9 66 31 1.5 34.8
18:00 1017 30.03 846 24.98 18.7 65.7 31 1.3 34.3
18:05 1017 30.03 846 24.98 18.7 65.6 32 1.6 35
18:10 1017 30.03 846 24.98 18.5 65.3 33 2 35.6
18:15 1017 30.03 846 24.98 18.4 65 34 2.2 36
18:20 1017 30.03 846 24.98 18.2 64.8 33 1.9 35.4
18:25 1017 30.03 846 24.98 18.1 64.5 36 2.9 37.2
18:30 1017 30.03 846 24.98 18 64.4 37 3.2 37.7
18:35 1017 30.03 846 24.98 17.9 64.2 34 2 35.7
18:40 1017 30.03 846 24.98 17.9 64.2 36 2.5 36.6
18:45 1017 30.03 846 24.98 17.8 64 36 2.6 36.7
18:50 1017 30.03 846 24.98 17.5 63.4 39 3.5 38.2
18:55 1017 30.03 846 24.98 17 62.7 43 4.6 40.2
19:00 1017 30.03 846 24.98 16.4 61.6 47 5.1 41.2
19:05 1017 30.03 846 24.98 16.1 61 47 4.8 40.6
19:10 1017 30.03 846 24.98 15.7 60.2 50 5.2 41.4
19:15 1017 30.03 846 24.98 15.3 59.5 50 5.1 41.1
19:20 1017 30.03 846 24.98 14.8 58.6 52 5 41
19:25 1017 30.03 846 24.98 14.5 58.2 56 5.8 42.5
19:30 1017 30.03 846 24.98 14.5 58 51 4.7 40.4
19:35 1017 30.03 846 24.98 14.1 57.3 54 5 41
19:40 1017 30.03 847 25.01 13.6 56.6 54 4.5 40.1
19:45 1017 30.03 847 25.01 13.5 56.3 53 4.3 39.7
19:50 1017 30.03 847 25.01 13.4 56.2 54 4.3 39.7
19:55 1017 30.03 847 25.01 13.3 55.9 54 4.3 39.8
20:00 1017 30.03 847 25.01 13.1 55.5 54 4.1 39.4
20:05 1017 30.03 847 25.01 13.1 55.6 53 3.7 38.7
20:10 1018 30.06 847 25.01 13.1 55.6 56 4.7 40.4
20:15 1018 30.06 847 25.01 12.5 54.5 60 4.9 40.8
20:20 1017 30.03 847 25.01 12 53.6 60 4.5 40
20:25 1017 30.03 847 25.01 11.9 53.3 59 4.2 39.6
20:30 1017 30.03 847 25.01 11.9 53.4 58 3.8 38.9
20:35 1017 30.03 847 25.01 12.1 53.7 57 4 39.1
20:40 1017 30.03 847 25.01 12.1 53.8 56 3.6 38.4
20:45 1017 30.03 847 25.01 12.2 53.9 56 3.8 38.8
20:50 1017 30.03 847 25.01 12.2 53.9 53 3 37.5
20:55 1017 30.03 847 25.01 12.3 54.1 53 3 37.3
21:00 1017 30.03 847 25.01 12.7 54.9 49 2.5 36.5
21:05 1017 30.03 847 25.01 13 55.5 47 2.1 35.8
21:10 1017 30.03 847 25.01 13.2 55.7 48 2.4 36.4
21:15 1017 30.03 847 25.01 13.1 55.5 49 2.8 37
21:20 1017 30.03 847 25.01 12.8 55 51 2.9 37.2
21:25 1017 30.03 847 25.01 12.4 54.3 52 2.8 37
21:30 1018 30.06 847 25.01 12.2 54 52 2.6 36.7
21:35 1018 30.06 847 25.01 12.1 53.8 52 2.7 36.8
21:40 1018 30.06 847 25.01 12.3 54.2 51 2.5 36.6
21:45 1018 30.06 847 25.01 12.6 54.7 48 1.9 35.3
21:50 1018 30.06 847 25.01 12.8 55.1 48 2.2 36
21:55 1018 30.06 847 25.01 12.6 54.6 49 2.3 36.1
22:00 1018 30.06 847 25.01 12.4 54.4 51 2.7 36.8
22:05 1018 30.06 847 25.01 12.2 53.9 51 2.4 36.4
22:10 1018 30.06 847 25.01 12 53.7 52 2.5 36.5
22:15 1018 30.06 847 25.01 11.9 53.5 51 2.2 36
22:20 1018 30.06 847 25.01 12.4 54.3 47 1.3 34.4
22:25 1018 30.06 847 25.01 13 55.3 45 1.5 34.6
22:30 1018 30.06 847 25.01 13.2 55.8 46 1.9 35.4
22:35 1018 30.06 847 25.01 13.1 55.5 46 1.9 35.3
22:40 1018 30.06 847 25.01 12.8 55.1 47 1.8 35.2
22:45 1018 30.06 847 25.01 12.8 55 46 1.5 34.8
22:50 1018 30.06 847 25.01 12.9 55.3 46 1.7 35.1
22:55 1018 30.06 847 25.01 12.7 54.9 47 1.7 35.1
23:00 1018 30.06 847 25.01 12.7 54.9 46 1.5 34.8
23:05 1018 30.06 847 25.01 12.6 54.7 50 2.5 36.5
23:10 1018 30.06 847 25.01 11.9 53.3 55 3.2 37.7
23:15 1018 30.06 847 25.01 10.9 51.6 58 3.1 37.5
23:20 1018 30.06 847 25.01 10.3 50.6 58 2.4 36.3
23:25 1018 30.06 847 25.01 10.4 50.8 59 2.7 36.9
23:30 1018 30.06 847 25.01 10.4 50.7 54 1.7 35
23:35 1018 30.06 847 25.01 11.1 51.9 57 2.9 37.3
23:40 1018 30.06 847 25.01 10.8 51.5 56 2.5 36.6
23:45 1018 30.06 847 25.01 10.8 51.4 57 2.6 36.7
23:50 1018 30.06 847 25.01 10.8 51.4 55 2.2 36
23:55 1018 30.06 847 25.01 10.9 51.6 53 1.6 34.9
24:00 1018 30.06 847 25.01 11.4 52.5 51 1.7 35.1